sensor_id;sensor_type;location;lat;lon;timestamp;pressure;altitude;pressure_sealevel;temperature;humidity
56604;BME280;42486;47.478;19.036;2022-08-03T00:01:34;100324.72;;;21.03;59.96
56604;BME280;42486;47.478;19.036;2022-08-03T00:04:36;100322.50;;;20.92;60.74
56604;BME280;42486;47.478;19.036;2022-08-03T00:07:41;100318.37;;;20.89;61.11
56604;BME280;42486;47.478;19.036;2022-08-03T00:10:45;100321.41;;;20.86;61.23
56604;BME280;42486;47.478;19.036;2022-08-03T00:13:48;100328.34;;;20.87;61.25
56604;BME280;42486;47.478;19.036;2022-08-03T00:16:51;100313.59;;;20.85;61.40
56604;BME280;42486;47.478;19.036;2022-08-03T00:19:53;100321.41;;;20.86;61.65
56604;BME280;42486;47.478;19.036;2022-08-03T00:22:56;100330.72;;;20.82;61.74
56604;BME280;42486;47.478;19.036;2022-08-03T00:25:58;100324.13;;;20.78;62.05
56604;BME280;42486;47.478;19.036;2022-08-03T00:29:00;100329.81;;;20.75;62.42
56604;BME280;42486;47.478;19.036;2022-08-03T00:32:03;100329.31;;;20.72;62.95
56604;BME280;42486;47.478;19.036;2022-08-03T00:35:05;100326.22;;;20.68;63.26
56604;BME280;42486;47.478;19.036;2022-08-03T00:38:14;100329.06;;;20.66;63.30
56604;BME280;42486;47.478;19.036;2022-08-03T00:41:17;100339.50;;;20.68;63.43
56604;BME280;42486;47.478;19.036;2022-08-03T00:44:19;100337.44;;;20.55;64.66
56604;BME280;42486;47.478;19.036;2022-08-03T00:47:23;100339.44;;;20.53;65.46
56604;BME280;42486;47.478;19.036;2022-08-03T00:50:27;100341.66;;;20.41;66.00
56604;BME280;42486;47.478;19.036;2022-08-03T00:53:29;100340.91;;;20.33;66.57
56604;BME280;42486;47.478;19.036;2022-08-03T00:56:32;100342.03;;;20.38;66.36
56604;BME280;42486;47.478;19.036;2022-08-03T00:59:35;100342.97;;;20.45;66.48
56604;BME280;42486;47.478;19.036;2022-08-03T01:02:39;100345.28;;;20.49;66.59
56604;BME280;42486;47.478;19.036;2022-08-03T01:12:21;100346.88;;;20.35;66.89
56604;BME280;42486;47.478;19.036;2022-08-03T01:30:58;100348.72;;;20.03;69.67
56604;BME280;42486;47.478;19.036;2022-08-03T01:34:03;100353.38;;;20.01;69.90
56604;BME280;42486;47.478;19.036;2022-08-03T01:37:15;100349.59;;;19.95;70.28
56604;BME280;42486;47.478;19.036;2022-08-03T01:40:21;100349.44;;;19.89;70.95
56604;BME280;42486;47.478;19.036;2022-08-03T01:43:26;100349.75;;;19.94;70.82
56604;BME280;42486;47.478;19.036;2022-08-03T01:46:49;100345.63;;;19.91;71.04
56604;BME280;42486;47.478;19.036;2022-08-03T01:49:53;100348.44;;;19.98;70.68
56604;BME280;42486;47.478;19.036;2022-08-03T01:52:59;100347.00;;;19.87;71.69
56604;BME280;42486;47.478;19.036;2022-08-03T01:56:02;100337.94;;;19.73;72.11
56604;BME280;42486;47.478;19.036;2022-08-03T01:59:07;100345.72;;;19.75;72.37
56604;BME280;42486;47.478;19.036;2022-08-03T02:02:12;100344.22;;;19.72;72.72
56604;BME280;42486;47.478;19.036;2022-08-03T02:05:33;100343.56;;;19.62;73.32
56604;BME280;42486;47.478;19.036;2022-08-03T02:08:37;100342.75;;;19.62;73.77
56604;BME280;42486;47.478;19.036;2022-08-03T02:11:40;100342.63;;;19.55;74.74
56604;BME280;42486;47.478;19.036;2022-08-03T02:14:44;100344.75;;;19.59;74.85
56604;BME280;42486;47.478;19.036;2022-08-03T02:17:47;100344.56;;;19.69;74.92
56604;BME280;42486;47.478;19.036;2022-08-03T02:20:50;100350.56;;;19.63;74.98
56604;BME280;42486;47.478;19.036;2022-08-03T02:23:53;100340.75;;;19.64;75.13
56604;BME280;42486;47.478;19.036;2022-08-03T02:26:55;100345.25;;;19.63;75.25
56604;BME280;42486;47.478;19.036;2022-08-03T02:30:04;100338.78;;;19.66;75.44
56604;BME280;42486;47.478;19.036;2022-08-03T02:33:10;100340.56;;;19.65;75.83
56604;BME280;42486;47.478;19.036;2022-08-03T02:36:13;100346.72;;;19.66;76.02
56604;BME280;42486;47.478;19.036;2022-08-03T02:39:18;100343.91;;;19.67;76.08
56604;BME280;42486;47.478;19.036;2022-08-03T02:42:21;100350.69;;;19.70;76.39
56604;BME280;42486;47.478;19.036;2022-08-03T02:45:25;100341.78;;;19.71;76.43
56604;BME280;42486;47.478;19.036;2022-08-03T02:48:29;100348.06;;;19.70;76.36
56604;BME280;42486;47.478;19.036;2022-08-03T02:51:35;100353.19;;;19.63;77.44
56604;BME280;42486;47.478;19.036;2022-08-03T02:54:40;100346.88;;;19.64;76.86
56604;BME280;42486;47.478;19.036;2022-08-03T02:57:44;100348.06;;;19.62;77.48
56604;BME280;42486;47.478;19.036;2022-08-03T03:00:47;100343.28;;;19.49;78.15
56604;BME280;42486;47.478;19.036;2022-08-03T03:03:54;100347.97;;;19.47;78.53
56604;BME280;42486;47.478;19.036;2022-08-03T03:06:58;100350.09;;;19.43;79.30
56604;BME280;42486;47.478;19.036;2022-08-03T03:10:04;100349.97;;;19.36;79.56
56604;BME280;42486;47.478;19.036;2022-08-03T03:13:07;100342.00;;;19.45;78.99
56604;BME280;42486;47.478;19.036;2022-08-03T03:16:11;100343.62;;;19.46;79.08
56604;BME280;42486;47.478;19.036;2022-08-03T03:19:14;100342.47;;;19.48;78.50
56604;BME280;42486;47.478;19.036;2022-08-03T03:22:18;100345.00;;;19.42;79.05
56604;BME280;42486;47.478;19.036;2022-08-03T03:25:21;100345.16;;;19.40;79.00
56604;BME280;42486;47.478;19.036;2022-08-03T03:28:25;100348.97;;;19.37;79.35
56604;BME280;42486;47.478;19.036;2022-08-03T03:31:29;100346.81;;;19.33;79.96
56604;BME280;42486;47.478;19.036;2022-08-03T03:34:34;100350.81;;;19.29;80.52
56604;BME280;42486;47.478;19.036;2022-08-03T03:37:37;100344.38;;;19.31;80.64
56604;BME280;42486;47.478;19.036;2022-08-03T03:40:40;100354.78;;;19.33;80.77
56604;BME280;42486;47.478;19.036;2022-08-03T03:43:42;100351.78;;;19.36;80.72
56604;BME280;42486;47.478;19.036;2022-08-03T03:46:45;100347.16;;;19.30;81.37
56604;BME280;42486;47.478;19.036;2022-08-03T03:49:49;100350.62;;;19.30;81.37
56604;BME280;42486;47.478;19.036;2022-08-03T03:52:53;100352.13;;;19.33;81.29
56604;BME280;42486;47.478;19.036;2022-08-03T03:55:55;100355.44;;;19.35;81.60
56604;BME280;42486;47.478;19.036;2022-08-03T03:59:03;100357.41;;;19.41;81.37
56604;BME280;42486;47.478;19.036;2022-08-03T04:02:06;100355.41;;;19.43;81.02
56604;BME280;42486;47.478;19.036;2022-08-03T04:05:09;100354.25;;;19.46;80.98
56604;BME280;42486;47.478;19.036;2022-08-03T04:08:30;100363.19;;;19.45;81.40
56604;BME280;42486;47.478;19.036;2022-08-03T04:11:52;100359.37;;;19.47;81.48
56604;BME280;42486;47.478;19.036;2022-08-03T04:14:55;100364.34;;;19.50;81.72
56604;BME280;42486;47.478;19.036;2022-08-03T04:17:58;100367.31;;;19.55;81.65
56604;BME280;42486;47.478;19.036;2022-08-03T04:21:04;100373.75;;;19.61;81.83
56604;BME280;42486;47.478;19.036;2022-08-03T04:24:08;100373.41;;;19.64;82.23
56604;BME280;42486;47.478;19.036;2022-08-03T04:27:11;100385.66;;;19.73;81.78
56604;BME280;42486;47.478;19.036;2022-08-03T04:30:15;100376.19;;;19.79;80.87
56604;BME280;42486;47.478;19.036;2022-08-03T04:33:18;100375.63;;;19.92;81.07
56604;BME280;42486;47.478;19.036;2022-08-03T04:36:24;100378.41;;;19.98;80.94
56604;BME280;42486;47.478;19.036;2022-08-03T04:39:28;100380.66;;;20.10;80.83
56604;BME280;42486;47.478;19.036;2022-08-03T04:42:33;100390.88;;;20.21;80.14
56604;BME280;42486;47.478;19.036;2022-08-03T04:45:36;100392.16;;;20.33;79.20
56604;BME280;42486;47.478;19.036;2022-08-03T04:48:39;100399.84;;;20.51;78.68
56604;BME280;42486;47.478;19.036;2022-08-03T04:51:45;100389.84;;;20.99;75.43
56604;BME280;42486;47.478;19.036;2022-08-03T04:54:49;100397.72;;;21.45;73.44
56604;BME280;42486;47.478;19.036;2022-08-03T04:57:52;100402.31;;;21.81;71.55
56604;BME280;42486;47.478;19.036;2022-08-03T05:00:54;100414.94;;;21.94;70.84
56604;BME280;42486;47.478;19.036;2022-08-03T05:03:57;100413.41;;;21.85;71.45
56604;BME280;42486;47.478;19.036;2022-08-03T05:07:00;100415.63;;;21.81;71.13
56604;BME280;42486;47.478;19.036;2022-08-03T05:10:13;100423.00;;;21.86;71.21
56604;BME280;42486;47.478;19.036;2022-08-03T05:13:17;100415.56;;;21.96;70.89
56604;BME280;42486;47.478;19.036;2022-08-03T05:16:20;100419.03;;;22.11;69.64
56604;BME280;42486;47.478;19.036;2022-08-03T05:19:22;100426.66;;;22.29;69.07
56604;BME280;42486;47.478;19.036;2022-08-03T05:22:24;100424.44;;;22.33;68.50
56604;BME280;42486;47.478;19.036;2022-08-03T05:25:27;100426.47;;;22.52;68.26
56604;BME280;42486;47.478;19.036;2022-08-03T05:28:29;100436.69;;;22.49;67.71
56604;BME280;42486;47.478;19.036;2022-08-03T05:31:32;100434.47;;;22.52;68.66
56604;BME280;42486;47.478;19.036;2022-08-03T05:34:34;100436.31;;;22.73;67.22
56604;BME280;42486;47.478;19.036;2022-08-03T05:37:37;100440.25;;;22.77;66.99
56604;BME280;42486;47.478;19.036;2022-08-03T05:40:56;100438.72;;;22.68;66.96
56604;BME280;42486;47.478;19.036;2022-08-03T05:44:18;100435.38;;;22.81;66.73
56604;BME280;42486;47.478;19.036;2022-08-03T05:47:21;100440.06;;;23.00;66.57
56604;BME280;42486;47.478;19.036;2022-08-03T05:50:24;100443.31;;;22.96;65.87
56604;BME280;42486;47.478;19.036;2022-08-03T05:53:26;100451.88;;;23.13;65.64
56604;BME280;42486;47.478;19.036;2022-08-03T05:56:29;100454.00;;;23.24;65.46
56604;BME280;42486;47.478;19.036;2022-08-03T05:59:31;100449.94;;;23.28;64.77
56604;BME280;42486;47.478;19.036;2022-08-03T06:02:39;100462.25;;;23.29;64.56
56604;BME280;42486;47.478;19.036;2022-08-03T06:05:41;100459.91;;;23.47;63.35
56604;BME280;42486;47.478;19.036;2022-08-03T06:09:00;100461.22;;;23.58;63.12
56604;BME280;42486;47.478;19.036;2022-08-03T06:12:04;100457.78;;;23.64;62.61
56604;BME280;42486;47.478;19.036;2022-08-03T06:15:06;100464.66;;;23.80;61.78
56604;BME280;42486;47.478;19.036;2022-08-03T06:18:12;100465.50;;;23.81;62.10
56604;BME280;42486;47.478;19.036;2022-08-03T06:21:14;100463.34;;;23.69;62.31
56604;BME280;42486;47.478;19.036;2022-08-03T06:24:17;100462.16;;;23.72;63.17
56604;BME280;42486;47.478;19.036;2022-08-03T06:27:25;100461.97;;;23.73;63.32
56604;BME280;42486;47.478;19.036;2022-08-03T06:30:38;100464.53;;;23.95;62.92
56604;BME280;42486;47.478;19.036;2022-08-03T06:33:41;100470.31;;;23.99;60.94
56604;BME280;42486;47.478;19.036;2022-08-03T06:37:04;100470.25;;;24.33;60.47
56604;BME280;42486;47.478;19.036;2022-08-03T06:40:06;100472.38;;;24.45;59.45
56604;BME280;42486;47.478;19.036;2022-08-03T06:43:14;100471.28;;;24.32;60.21
56604;BME280;42486;47.478;19.036;2022-08-03T06:46:17;100470.53;;;24.45;59.79
56604;BME280;42486;47.478;19.036;2022-08-03T06:49:19;100480.03;;;24.68;58.54
56604;BME280;42486;47.478;19.036;2022-08-03T06:52:21;100477.16;;;24.76;57.96
56604;BME280;42486;47.478;19.036;2022-08-03T06:55:39;100473.91;;;24.94;56.97
56604;BME280;42486;47.478;19.036;2022-08-03T06:58:43;100474.94;;;24.99;56.44
56604;BME280;42486;47.478;19.036;2022-08-03T07:01:45;100484.03;;;25.25;55.30
56604;BME280;42486;47.478;19.036;2022-08-03T07:04:48;100481.16;;;25.20;55.90
56604;BME280;42486;47.478;19.036;2022-08-03T07:07:55;100486.25;;;25.15;56.16
56604;BME280;42486;47.478;19.036;2022-08-03T07:10:59;100488.75;;;25.49;54.79
56604;BME280;42486;47.478;19.036;2022-08-03T07:14:01;100479.28;;;25.54;55.23
56604;BME280;42486;47.478;19.036;2022-08-03T07:17:04;100485.00;;;25.70;53.86
56604;BME280;42486;47.478;19.036;2022-08-03T07:20:12;100480.84;;;26.01;53.66
56604;BME280;42486;47.478;19.036;2022-08-03T07:23:16;100492.09;;;26.17;51.68
56604;BME280;42486;47.478;19.036;2022-08-03T07:26:20;100490.59;;;26.79;49.77
56604;BME280;42486;47.478;19.036;2022-08-03T07:29:22;100487.66;;;28.96;45.45
56604;BME280;42486;47.478;19.036;2022-08-03T07:32:24;100489.34;;;31.06;40.70
56604;BME280;42486;47.478;19.036;2022-08-03T07:35:29;100493.09;;;33.25;35.12
56604;BME280;42486;47.478;19.036;2022-08-03T07:38:33;100499.06;;;34.33;33.18
56604;BME280;42486;47.478;19.036;2022-08-03T07:41:36;100503.53;;;35.31;31.48
56604;BME280;42486;47.478;19.036;2022-08-03T07:44:42;100494.94;;;36.88;29.13
56604;BME280;42486;47.478;19.036;2022-08-03T07:47:45;100495.41;;;37.59;28.08
56604;BME280;42486;47.478;19.036;2022-08-03T07:50:54;100507.16;;;38.02;27.26
56604;BME280;42486;47.478;19.036;2022-08-03T07:53:57;100496.88;;;37.94;26.90
56604;BME280;42486;47.478;19.036;2022-08-03T07:57:00;100500.63;;;37.55;27.25
56604;BME280;42486;47.478;19.036;2022-08-03T08:00:05;100498.47;;;38.00;26.39
56604;BME280;42486;47.478;19.036;2022-08-03T08:03:10;100499.13;;;38.30;26.04
56604;BME280;42486;47.478;19.036;2022-08-03T08:06:12;100503.78;;;38.86;25.32
56604;BME280;42486;47.478;19.036;2022-08-03T08:09:16;100498.44;;;38.43;25.79
56604;BME280;42486;47.478;19.036;2022-08-03T08:12:18;100495.31;;;38.12;26.25
56604;BME280;42486;47.478;19.036;2022-08-03T08:15:21;100497.41;;;37.48;27.03
56604;BME280;42486;47.478;19.036;2022-08-03T08:18:24;100491.16;;;34.16;31.85
56604;BME280;42486;47.478;19.036;2022-08-03T08:21:26;100487.34;;;32.57;34.91
56604;BME280;42486;47.478;19.036;2022-08-03T08:24:48;100485.84;;;30.89;38.62
56604;BME280;42486;47.478;19.036;2022-08-03T08:27:53;100497.06;;;31.14;39.32
56604;BME280;42486;47.478;19.036;2022-08-03T08:31:15;100488.97;;;30.69;38.45
56604;BME280;42486;47.478;19.036;2022-08-03T08:34:18;100488.13;;;30.23;39.52
56604;BME280;42486;47.478;19.036;2022-08-03T08:37:21;100482.50;;;30.24;39.71
56604;BME280;42486;47.478;19.036;2022-08-03T08:40:27;100486.62;;;30.03;40.55
56604;BME280;42486;47.478;19.036;2022-08-03T08:43:29;100483.88;;;29.63;41.44
56604;BME280;42486;47.478;19.036;2022-08-03T08:46:31;100484.34;;;29.36;40.90
56604;BME280;42486;47.478;19.036;2022-08-03T08:49:35;100473.91;;;29.40;41.15
56604;BME280;42486;47.478;19.036;2022-08-03T08:52:40;100478.47;;;29.63;41.31
56604;BME280;42486;47.478;19.036;2022-08-03T08:55:45;100469.38;;;28.26;43.39
56604;BME280;42486;47.478;19.036;2022-08-03T08:59:00;100472.41;;;29.21;43.18
56604;BME280;42486;47.478;19.036;2022-08-03T09:02:04;100473.91;;;29.40;41.60
56604;BME280;42486;47.478;19.036;2022-08-03T09:05:10;100475.09;;;29.21;41.54
56604;BME280;42486;47.478;19.036;2022-08-03T09:08:15;100467.28;;;28.89;41.92
56604;BME280;42486;47.478;19.036;2022-08-03T09:11:21;100467.13;;;28.72;42.25
56604;BME280;42486;47.478;19.036;2022-08-03T09:14:44;100461.50;;;29.15;41.53
56604;BME280;42486;47.478;19.036;2022-08-03T09:18:06;100460.56;;;29.57;41.26
56604;BME280;42486;47.478;19.036;2022-08-03T09:24:38;100468.06;;;29.67;39.73
56604;BME280;42486;47.478;19.036;2022-08-03T09:27:42;100461.63;;;29.56;40.36
56604;BME280;42486;47.478;19.036;2022-08-03T09:31:10;100464.28;;;29.91;40.52
56604;BME280;42486;47.478;19.036;2022-08-03T09:34:10;100449.44;;;30.17;38.85
56604;BME280;42486;47.478;19.036;2022-08-03T09:37:14;100457.03;;;30.32;38.66
56604;BME280;42486;47.478;19.036;2022-08-03T09:40:32;100454.09;;;30.50;37.26
56604;BME280;42486;47.478;19.036;2022-08-03T09:43:45;100452.34;;;29.75;37.67
56604;BME280;42486;47.478;19.036;2022-08-03T09:46:53;100458.78;;;29.86;38.12
56604;BME280;42486;47.478;19.036;2022-08-03T09:50:00;100436.31;;;29.80;38.70
56604;BME280;42486;47.478;19.036;2022-08-03T09:53:03;100439.97;;;30.43;37.40
56604;BME280;42486;47.478;19.036;2022-08-03T09:56:06;100440.56;;;30.62;37.59
56604;BME280;42486;47.478;19.036;2022-08-03T09:59:31;100442.97;;;30.92;35.88
56604;BME280;42486;47.478;19.036;2022-08-03T10:02:34;100436.03;;;30.97;35.53
56604;BME280;42486;47.478;19.036;2022-08-03T10:05:37;100438.69;;;30.63;35.24
56604;BME280;42486;47.478;19.036;2022-08-03T10:08:45;100433.09;;;30.81;36.12
56604;BME280;42486;47.478;19.036;2022-08-03T10:11:48;100427.75;;;31.03;35.13
56604;BME280;42486;47.478;19.036;2022-08-03T10:14:51;100428.34;;;31.05;35.05
56604;BME280;42486;47.478;19.036;2022-08-03T10:17:53;100426.50;;;30.77;36.19
56604;BME280;42486;47.478;19.036;2022-08-03T10:20:58;100425.28;;;30.68;36.95
56604;BME280;42486;47.478;19.036;2022-08-03T10:24:03;100427.25;;;31.40;35.20
56604;BME280;42486;47.478;19.036;2022-08-03T10:27:06;100417.31;;;31.07;36.23
56604;BME280;42486;47.478;19.036;2022-08-03T10:30:09;100410.13;;;31.51;34.62
56604;BME280;42486;47.478;19.036;2022-08-03T10:33:19;100416.78;;;31.44;34.60
56604;BME280;42486;47.478;19.036;2022-08-03T10:36:41;100410.81;;;31.86;34.03
56604;BME280;42486;47.478;19.036;2022-08-03T10:39:45;100418.94;;;31.64;33.97
56604;BME280;42486;47.478;19.036;2022-08-03T10:43:06;100409.25;;;31.90;34.71
56604;BME280;42486;47.478;19.036;2022-08-03T10:46:11;100404.75;;;31.34;34.24
56604;BME280;42486;47.478;19.036;2022-08-03T10:49:16;100408.25;;;31.96;33.22
56604;BME280;42486;47.478;19.036;2022-08-03T10:52:41;100399.44;;;31.40;33.89
56604;BME280;42486;47.478;19.036;2022-08-03T10:55:54;100392.28;;;31.72;34.51
56604;BME280;42486;47.478;19.036;2022-08-03T11:03:00;100390.09;;;31.69;32.77
56604;BME280;42486;47.478;19.036;2022-08-03T11:06:36;100374.00;;;31.79;33.69
56604;BME280;42486;47.478;19.036;2022-08-03T11:09:41;100378.56;;;32.28;33.20
56604;BME280;42486;47.478;19.036;2022-08-03T11:12:44;100372.66;;;32.96;31.28
56604;BME280;42486;47.478;19.036;2022-08-03T11:15:47;100367.66;;;32.77;32.13
56604;BME280;42486;47.478;19.036;2022-08-03T11:18:59;100364.78;;;32.94;31.40
56604;BME280;42486;47.478;19.036;2022-08-03T11:22:03;100363.97;;;32.94;31.17
56604;BME280;42486;47.478;19.036;2022-08-03T11:25:05;100364.81;;;32.99;30.84
56604;BME280;42486;47.478;19.036;2022-08-03T11:28:23;100358.19;;;32.80;31.69
56604;BME280;42486;47.478;19.036;2022-08-03T11:35:06;100356.00;;;31.41;32.19
56604;BME280;42486;47.478;19.036;2022-08-03T11:38:09;100350.66;;;32.22;31.87
56604;BME280;42486;47.478;19.036;2022-08-03T11:41:31;100349.63;;;32.56;31.29
56604;BME280;42486;47.478;19.036;2022-08-03T11:44:43;100346.34;;;32.91;31.01
56604;BME280;42486;47.478;19.036;2022-08-03T11:47:48;100349.19;;;33.06;30.45
56604;BME280;42486;47.478;19.036;2022-08-03T11:50:53;100346.47;;;32.37;31.79
56604;BME280;42486;47.478;19.036;2022-08-03T11:53:56;100339.00;;;32.17;32.42
56604;BME280;42486;47.478;19.036;2022-08-03T11:56:59;100343.09;;;32.89;30.84
56604;BME280;42486;47.478;19.036;2022-08-03T12:00:02;100337.81;;;32.67;31.28
56604;BME280;42486;47.478;19.036;2022-08-03T12:03:09;100336.34;;;31.73;32.31
56604;BME280;42486;47.478;19.036;2022-08-03T12:06:13;100333.97;;;31.76;32.62
56604;BME280;42486;47.478;19.036;2022-08-03T12:09:16;100330.53;;;32.08;31.47
56604;BME280;42486;47.478;19.036;2022-08-03T12:12:21;100334.22;;;32.56;30.80
56604;BME280;42486;47.478;19.036;2022-08-03T12:15:27;100328.97;;;32.87;30.34
56604;BME280;42486;47.478;19.036;2022-08-03T12:18:29;100323.97;;;33.01;29.68
56604;BME280;42486;47.478;19.036;2022-08-03T12:21:31;100326.06;;;32.94;30.06
56604;BME280;42486;47.478;19.036;2022-08-03T12:24:40;100326.00;;;32.83;29.67
56604;BME280;42486;47.478;19.036;2022-08-03T12:27:43;100317.38;;;32.92;29.67
56604;BME280;42486;47.478;19.036;2022-08-03T12:30:46;100320.28;;;32.75;31.00
56604;BME280;42486;47.478;19.036;2022-08-03T12:34:03;100315.84;;;33.01;29.89
56604;BME280;42486;47.478;19.036;2022-08-03T12:37:07;100308.34;;;33.18;29.49
56604;BME280;42486;47.478;19.036;2022-08-03T12:40:29;100308.84;;;32.67;30.28
56604;BME280;42486;47.478;19.036;2022-08-03T12:43:33;100309.81;;;32.51;30.21
56604;BME280;42486;47.478;19.036;2022-08-03T12:46:40;100310.34;;;32.48;30.48
56604;BME280;42486;47.478;19.036;2022-08-03T12:49:49;100309.31;;;31.68;31.28
56604;BME280;42486;47.478;19.036;2022-08-03T12:52:51;100293.44;;;31.32;33.32
56604;BME280;42486;47.478;19.036;2022-08-03T12:55:59;100293.09;;;31.68;30.91
56604;BME280;42486;47.478;19.036;2022-08-03T12:59:25;100288.50;;;31.95;30.68
56604;BME280;42486;47.478;19.036;2022-08-03T13:02:35;100299.91;;;32.30;30.98
56604;BME280;42486;47.478;19.036;2022-08-03T13:05:41;100289.56;;;32.54;30.74
56604;BME280;42486;47.478;19.036;2022-08-03T13:08:44;100290.69;;;32.63;30.28
56604;BME280;42486;47.478;19.036;2022-08-03T13:12:02;100283.47;;;32.41;30.62
56604;BME280;42486;47.478;19.036;2022-08-03T13:15:08;100275.66;;;32.08;30.97
56604;BME280;42486;47.478;19.036;2022-08-03T13:18:11;100273.84;;;31.64;31.06
56604;BME280;42486;47.478;19.036;2022-08-03T13:21:18;100277.63;;;31.63;31.35
56604;BME280;42486;47.478;19.036;2022-08-03T13:24:21;100268.38;;;31.86;30.61
56604;BME280;42486;47.478;19.036;2022-08-03T13:27:24;100271.03;;;32.40;30.13
56604;BME280;42486;47.478;19.036;2022-08-03T13:30:46;100271.13;;;32.51;29.37
56604;BME280;42486;47.478;19.036;2022-08-03T13:33:48;100273.75;;;32.83;28.18
56604;BME280;42486;47.478;19.036;2022-08-03T13:36:50;100268.81;;;32.32;28.88
56604;BME280;42486;47.478;19.036;2022-08-03T13:40:09;100259.28;;;31.65;30.06
56604;BME280;42486;47.478;19.036;2022-08-03T13:43:15;100263.38;;;31.24;30.20
56604;BME280;42486;47.478;19.036;2022-08-03T13:46:17;100260.94;;;31.22;30.52
56604;BME280;42486;47.478;19.036;2022-08-03T13:49:21;100256.88;;;31.42;30.51
56604;BME280;42486;47.478;19.036;2022-08-03T13:52:23;100252.59;;;31.73;29.03
56604;BME280;42486;47.478;19.036;2022-08-03T13:55:25;100244.84;;;32.09;28.64
56604;BME280;42486;47.478;19.036;2022-08-03T13:58:27;100243.31;;;32.23;27.91
56604;BME280;42486;47.478;19.036;2022-08-03T14:01:29;100237.50;;;32.41;27.68
56604;BME280;42486;47.478;19.036;2022-08-03T14:04:51;100232.22;;;31.60;28.67
56604;BME280;42486;47.478;19.036;2022-08-03T14:07:54;100239.72;;;31.53;30.05
56604;BME280;42486;47.478;19.036;2022-08-03T14:11:05;100228.53;;;31.71;28.01
56604;BME280;42486;47.478;19.036;2022-08-03T14:14:08;100233.69;;;32.00;27.58
56604;BME280;42486;47.478;19.036;2022-08-03T14:17:10;100227.19;;;32.38;27.25
56604;BME280;42486;47.478;19.036;2022-08-03T14:20:12;100231.50;;;32.34;27.55
56604;BME280;42486;47.478;19.036;2022-08-03T14:23:36;100228.28;;;32.37;27.58
56604;BME280;42486;47.478;19.036;2022-08-03T14:26:39;100220.84;;;32.55;27.45
56604;BME280;42486;47.478;19.036;2022-08-03T14:29:41;100218.94;;;32.50;27.67
56604;BME280;42486;47.478;19.036;2022-08-03T14:32:43;100208.94;;;32.13;28.28
56604;BME280;42486;47.478;19.036;2022-08-03T14:35:45;100219.66;;;32.40;27.80
56604;BME280;42486;47.478;19.036;2022-08-03T14:38:47;100218.44;;;32.58;27.26
56604;BME280;42486;47.478;19.036;2022-08-03T14:41:50;100210.00;;;32.55;27.62
56604;BME280;42486;47.478;19.036;2022-08-03T14:44:52;100210.19;;;32.43;27.38
56604;BME280;42486;47.478;19.036;2022-08-03T14:48:02;100210.41;;;32.36;27.99
56604;BME280;42486;47.478;19.036;2022-08-03T14:51:25;100209.03;;;31.96;28.49
56604;BME280;42486;47.478;19.036;2022-08-03T14:54:32;100204.81;;;32.06;28.56
56604;BME280;42486;47.478;19.036;2022-08-03T14:57:34;100206.87;;;32.31;28.25
56604;BME280;42486;47.478;19.036;2022-08-03T15:00:37;100199.00;;;32.24;28.21
56604;BME280;42486;47.478;19.036;2022-08-03T15:03:39;100205.38;;;31.80;28.31
56604;BME280;42486;47.478;19.036;2022-08-03T15:06:42;100197.28;;;31.26;29.19
56604;BME280;42486;47.478;19.036;2022-08-03T15:09:49;100202.41;;;31.50;28.79
56604;BME280;42486;47.478;19.036;2022-08-03T15:12:51;100203.31;;;31.61;28.96
56604;BME280;42486;47.478;19.036;2022-08-03T15:15:55;100195.09;;;31.77;28.55
56604;BME280;42486;47.478;19.036;2022-08-03T15:18:58;100195.72;;;31.90;28.19
56604;BME280;42486;47.478;19.036;2022-08-03T15:22:05;100201.81;;;31.75;28.06
56604;BME280;42486;47.478;19.036;2022-08-03T15:25:10;100194.78;;;32.01;27.65
56604;BME280;42486;47.478;19.036;2022-08-03T15:28:33;100183.47;;;32.09;28.35
56604;BME280;42486;47.478;19.036;2022-08-03T15:31:38;100189.50;;;32.21;27.58
56604;BME280;42486;47.478;19.036;2022-08-03T15:34:41;100190.25;;;32.12;26.78
56604;BME280;42486;47.478;19.036;2022-08-03T15:37:51;100188.88;;;32.09;26.50
56604;BME280;42486;47.478;19.036;2022-08-03T15:40:53;100185.06;;;32.05;26.47
56604;BME280;42486;47.478;19.036;2022-08-03T15:43:56;100178.75;;;32.32;26.43
56604;BME280;42486;47.478;19.036;2022-08-03T15:46:58;100185.75;;;32.28;27.26
56604;BME280;42486;47.478;19.036;2022-08-03T15:50:00;100187.13;;;31.93;26.83
56604;BME280;42486;47.478;19.036;2022-08-03T15:53:10;100187.75;;;32.00;27.37
56604;BME280;42486;47.478;19.036;2022-08-03T15:56:12;100181.84;;;32.08;28.05
56604;BME280;42486;47.478;19.036;2022-08-03T15:59:19;100182.41;;;32.10;28.25
56604;BME280;42486;47.478;19.036;2022-08-03T16:02:21;100178.16;;;31.87;27.84
56604;BME280;42486;47.478;19.036;2022-08-03T16:05:24;100185.16;;;31.88;28.36
56604;BME280;42486;47.478;19.036;2022-08-03T16:08:27;100173.56;;;31.88;27.97
56604;BME280;42486;47.478;19.036;2022-08-03T16:11:30;100172.09;;;31.75;27.97
56604;BME280;42486;47.478;19.036;2022-08-03T16:14:33;100171.41;;;31.57;28.73
56604;BME280;42486;47.478;19.036;2022-08-03T16:17:52;100175.78;;;31.64;28.24
56604;BME280;42486;47.478;19.036;2022-08-03T16:20:56;100174.06;;;31.25;29.37
56604;BME280;42486;47.478;19.036;2022-08-03T16:23:58;100171.59;;;31.24;29.73
56604;BME280;42486;47.478;19.036;2022-08-03T16:27:06;100166.88;;;31.36;29.35
56604;BME280;42486;47.478;19.036;2022-08-03T16:30:28;100174.12;;;31.35;29.65
56604;BME280;42486;47.478;19.036;2022-08-03T16:33:34;100163.25;;;31.25;30.02